createdAt,value
2017-08-29T07:08:52.001Z,13952.0
2017-08-29T07:19:38.841Z,14432.0
2017-08-29T07:29:54.818Z,16352.0
2017-08-29T07:40:11.147Z,19552.0
2017-08-29T07:50:27.504Z,21984.0
2017-08-29T08:00:43.582Z,24128.0
2017-08-29T08:10:59.696Z,28928.0
2017-08-29T08:21:15.814Z,32864.0
2017-08-29T08:31:32.264Z,29632.0
2017-08-29T08:41:48.297Z,35232.0
2017-08-29T08:52:04.397Z,42528.0
2017-08-29T09:02:20.733Z,40032.0
2017-08-29T09:12:37.197Z,45440.0
2017-08-29T09:22:53.039Z,46880.0
2017-08-29T09:33:09.386Z,50432.0
2017-08-29T09:43:25.792Z,52384.0
2017-08-29T09:53:41.765Z,55616.0
2017-08-29T10:03:58.035Z,57472.0
2017-08-29T10:14:14.367Z,53312.0
2017-08-29T10:24:30.816Z,59264.0
2017-08-29T10:34:46.739Z,64000.0
2017-08-29T10:45:02.827Z,55392.0
2017-08-29T10:55:19.355Z,61376.0
2017-08-29T11:05:35.392Z,58880.0
2017-08-29T11:15:51.587Z,62432.0
2017-08-29T11:26:08.022Z,60512.0
2017-08-29T11:36:24.136Z,62304.0
2017-08-29T11:46:40.252Z,61248.0
2017-08-29T11:56:56.791Z,65440.0
2017-08-29T12:07:12.935Z,64352.0
2017-08-29T12:17:29.355Z,60704.0
2017-08-29T12:27:45.465Z,60448.0
2017-08-29T12:38:01.439Z,57888.0
2017-08-29T12:48:48.375Z,58624.0
2017-08-29T12:59:04.667Z,58144.0
2017-08-29T13:09:20.693Z,52768.0
2017-08-29T13:19:37.081Z,50720.0
2017-08-29T13:29:53.168Z,48320.0
2017-08-29T13:40:09.223Z,51424.0
2017-08-29T13:50:25.720Z,36160.0
2017-08-29T14:00:41.731Z,22080.0
2017-08-29T14:10:58.067Z,21472.0
2017-08-29T14:21:14.040Z,21024.0
2017-08-29T14:31:30.107Z,20064.0
2017-08-29T14:42:17.876Z,22784.0
2017-08-29T14:52:35.538Z,29152.0
2017-08-29T15:03:21.531Z,23072.0
2017-08-29T15:13:37.766Z,18624.0
2017-08-29T15:24:40.621Z,11492.0
2017-08-29T15:35:01.780Z,9180.0
2017-08-29T15:45:31.320Z,8324.0
2017-08-29T15:55:52.159Z,4584.0
2017-08-29T16:06:12.991Z,7624.0
2017-08-29T16:16:31.132Z,7548.0
2017-08-29T16:26:47.051Z,5136.0
2017-08-29T16:37:03.375Z,4328.0
2017-08-29T16:47:17.490Z,4044.0
2017-08-29T16:57:33.968Z,3080.0
2017-08-29T17:07:49.926Z,2036.0
2017-08-29T17:18:06.331Z,2392.0
2017-08-29T17:29:24.895Z,2324.0
2017-08-29T17:39:41.017Z,1348.0
2017-08-29T17:55:18.511Z,628.0
2017-08-29T18:05:34.681Z,292.0
2017-08-29T18:15:50.922Z,140.0
2017-08-29T18:26:04.410Z,60.0
2017-08-29T18:36:20.469Z,20.0
2017-08-29T18:46:36.816Z,4.0
2017-08-29T18:56:53.237Z,0.0
2017-08-29T19:07:13.541Z,0.0
2017-08-29T19:18:00.276Z,0.0
2017-08-29T19:28:16.231Z,0.0
2017-08-29T19:38:32.527Z,0.0
2017-08-29T19:48:48.885Z,0.0
2017-08-29T19:59:05.126Z,0.0
2017-08-29T20:09:21.065Z,0.0
2017-08-29T20:20:07.864Z,0.0
2017-08-29T20:30:24.286Z,0.0
2017-08-29T20:40:40.509Z,0.0
2017-08-29T20:50:56.890Z,0.0
2017-08-29T21:01:12.917Z,0.0
2017-08-29T21:11:28.902Z,0.0
2017-08-29T21:21:45.113Z,0.0
2017-08-29T21:32:00.664Z,0.0
2017-08-29T21:42:16.961Z,0.0
2017-08-29T21:52:32.747Z,0.0
2017-08-29T22:02:48.997Z,0.0
2017-08-29T22:13:05.210Z,0.0
2017-08-29T22:23:20.515Z,0.0
2017-08-29T22:33:37.034Z,0.0
2017-08-29T22:43:53.468Z,0.0
2017-08-29T22:54:09.312Z,0.0
2017-08-29T23:04:25.345Z,0.0
2017-08-29T23:14:41.977Z,0.0
2017-08-29T23:24:57.850Z,0.0
2017-08-29T23:35:44.788Z,0.0
2017-08-29T23:46:00.770Z,0.0
2017-08-29T23:56:17.024Z,0.0
